Página principal
METAR-TAF:

METAR-TAF

Aeroportos :

Fuerteventura, Espanha

latitude: 28-27N, longitude: 013-52W, altura: 22 m

Observação actual do tempo

O boletim foi feito há 20 minutos, às 14:00 UTC
Vento 9 kt de nordeste, variando entre norte e es-nordeste
Temperatura 23°C
Humidade 73%
Pressão 1017 hPa
Visibilidade 10 km ou mais
sem nuvens abaixo de 1500 metros e sem cumulonimbus

METAR: GCFV 121400Z 04009KT 010V070 CAVOK 23/18 Q1017

Hora: 15:20 (14:20 UTC)

Previsão

O boletim foi feito há 6 horas e 20 minutos, às 08:00 UTC
Previsão válida de 12 às 09 UTC a 13 às 09 UTC
Vento 13 kt de nor-nordeste
Visibilidade: 9000 m
Temporariamente
de 12 às 20 UTC a 13 às 09 UTC
Vento 5 kt com direcção variável
Probabilidade 30% :
Temporariamente
de 13 às 00 UTC a 13 às 07 UTC
Vento 10 kt de nor-noroeste

TAF: GCFV 120800Z 1209/1309 03013KT 9000 NSC TX27/1214Z TN20/1306Z TEMPO 1220/1309 VRB05KT PROB30 TEMPO 1300/1307 33010KT

Observações e previsões do tempo de mais de 4000 aeroportos (mensagens METAR e TAF).

As estações disponíveis são os pontos amarelos e vermelhos sobre o mapa.

Mova o rato sobre o mapa para ver o nome da estação.

Depois clique no ponto para visualizar as observações e previsões meteorológicas.

Para alterar o mapa : clique nos botões verdes com uma cruz preta para aumentar o zoom; no botão verde com uma pitada de zoom; ou nas setas verdes para mapas adjacentes.


METAR-TAF: